Time;durP1;ratioP1;P1;durP2;ratioP2;P2;SDS_P1;SDS_P2;PMS_P1;PMS_P2;Temp;Humidity;BMP_temperature;BMP_pressure;BME280_temperature;BME280_humidity;BME280_pressure;Samples;Min_cycle;Max_cycle;Signal;HPM_P1;HPM_P2
2022/07/09 00:02:17;;;;;;;5.97;5.07;;;28.60;49.00;;;;;;4588033;57;21108;-31
2022/07/09 00:07:17;;;;;;;7.55;5.85;;;28.50;48.90;;;;;;4560879;58;21093;-31
2022/07/09 00:12:18;;;;;;;6.80;5.07;;;28.50;48.90;;;;;;4754277;57;21048;-29
2022/07/09 00:17:19;;;;;;;5.40;4.87;;;28.60;49.00;;;;;;4583870;57;21494;-31
2022/07/09 00:22:20;;;;;;;5.70;5.10;;;28.50;48.90;;;;;;4613115;57;21112;-32
2022/07/09 00:27:21;;;;;;;6.60;5.18;;;28.50;48.80;;;;;;4894451;57;21104;-32
2022/07/09 00:32:22;;;;;;;6.32;5.53;;;28.60;49.00;;;;;;4623783;57;21072;-32
2022/07/09 00:37:23;;;;;;;5.80;5.20;;;28.50;49.60;;;;;;4620943;57;21064;-35
2022/07/09 00:42:24;;;;;;;6.00;5.40;;;28.50;48.80;;;;;;4658329;57;21113;-32
2022/07/09 00:47:25;;;;;;;5.25;4.75;;;28.50;48.90;;;;;;4825730;57;21092;-31
2022/07/09 00:52:27;;;;;;;4.80;4.30;;;28.50;48.90;;;;;;5007925;57;21028;-30
2022/07/09 00:57:29;;;;;;;6.35;5.07;;;28.50;48.90;;;;;;4566685;57;21076;-32
2022/07/09 01:02:30;;;;;;;6.53;4.87;;;28.50;48.80;;;;;;4746963;57;21064;-30
2022/07/09 01:07:31;;;;;;;6.25;5.07;;;28.50;48.80;;;;;;4760541;57;21519;-30
2022/07/09 01:12:32;;;;;;;5.12;4.65;;;28.50;48.90;;;;;;4636914;57;21041;-30
2022/07/09 01:17:42;;;;;;;5.75;5.15;;;28.50;48.80;;;;;;4622916;57;21521;-31
2022/07/09 01:22:43;;;;;;;5.28;4.72;;;28.50;48.80;;;;;;4671462;57;21089;-36
2022/07/09 01:27:44;;;;;;;5.45;4.95;;;28.50;48.80;;;;;;4890401;57;21069;-35
2022/07/09 01:32:45;;;;;;;5.10;4.60;;;28.50;48.80;;;;;;4645640;57;21054;-34
2022/07/09 01:37:46;;;;;;;5.35;4.40;;;28.50;48.80;;;;;;4708858;57;21024;-34
2022/07/09 01:42:47;;;;;;;5.75;4.72;;;28.50;48.80;;;;;;4561715;61;21522;-35
2022/07/09 01:47:48;;;;;;;5.10;4.57;;;28.50;48.80;;;;;;4599849;57;21595;-32
2022/07/09 01:52:50;;;;;;;4.87;4.37;;;28.50;48.80;;;;;;4576732;57;21096;-32
2022/07/09 01:57:51;;;;;;;4.87;4.32;;;28.50;48.80;;;;;;4561640;61;21510;-33
2022/07/09 02:02:52;;;;;;;5.32;4.28;;;28.50;48.90;;;;;;4687954;57;21025;-33
2022/07/09 02:07:53;;;;;;;4.75;4.28;;;28.50;48.90;;;;;;4561690;61;21498;-31
2022/07/09 02:12:54;;;;;;;4.55;4.10;;;28.50;48.90;;;;;;4993226;57;21068;-33
2022/07/09 02:17:54;;;;;;;5.07;4.40;;;28.50;48.80;;;;;;4626133;57;21036;-33
2022/07/09 02:22:56;;;;;;;5.25;4.47;;;28.50;48.90;;;;;;4619670;57;21036;-35
2022/07/09 02:27:56;;;;;;;4.60;4.10;;;28.50;48.80;;;;;;4647287;57;21514;-32
2022/07/09 02:32:57;;;;;;;4.65;4.15;;;28.40;48.70;;;;;;4616876;57;21076;-35
2022/07/09 02:37:58;;;;;;;5.15;4.55;;;28.50;48.80;;;;;;4712703;57;21132;-34
2022/07/09 02:42:59;;;;;;;5.28;4.40;;;28.50;48.80;;;;;;4562367;57;21535;-35
2022/07/09 02:48:00;;;;;;;4.72;4.32;;;28.50;48.90;;;;;;4609152;57;21101;-29
2022/07/09 02:53:00;;;;;;;4.50;4.10;;;28.50;48.80;;;;;;4745884;57;21522;-30
2022/07/09 02:58:01;;;;;;;5.05;4.28;;;28.40;48.80;;;;;;4561547;61;21097;-30
2022/07/09 03:03:02;;;;;;;4.68;4.20;;;28.40;48.70;;;;;;4561883;61;21016;-28
2022/07/09 03:08:04;;;;;;;4.22;3.83;;;28.40;48.80;;;;;;4760700;57;21040;-29
2022/07/09 03:13:05;;;;;;;4.20;3.80;;;28.40;48.80;;;;;;4596245;57;21076;-29
2022/07/09 03:18:08;;;;;;;4.82;4.32;;;28.40;48.90;;;;;;4672982;57;21029;-30
2022/07/09 03:23:09;;;;;;;4.10;3.78;;;28.50;48.80;;;;;;4748350;57;21511;-32
2022/07/09 03:28:10;;;;;;;4.15;3.75;;;28.50;48.90;;;;;;4860875;57;21495;-32
2022/07/09 03:33:11;;;;;;;4.47;3.80;;;28.40;48.80;;;;;;4661001;57;21024;-33
2022/07/09 03:38:12;;;;;;;3.83;3.50;;;28.50;48.90;;;;;;4561520;59;21037;-33
2022/07/09 03:43:12;;;;;;;4.95;3.55;;;28.40;48.90;;;;;;4773192;57;21509;-27
2022/07/09 03:48:13;;;;;;;4.78;3.80;;;28.40;48.80;;;;;;4646788;57;21056;-30
2022/07/09 03:53:14;;;;;;;4.90;3.75;;;28.40;48.90;;;;;;4710856;57;21482;-31
2022/07/09 03:58:15;;;;;;;4.12;3.72;;;28.40;48.90;;;;;;4740017;57;21094;-30
2022/07/09 04:03:16;;;;;;;4.18;3.72;;;28.40;48.90;;;;;;4563866;57;21032;-33
2022/07/09 04:08:16;;;;;;;3.95;3.55;;;28.40;49.00;;;;;;4707345;57;21035;-28
2022/07/09 04:13:17;;;;;;;5.57;3.97;;;28.40;48.90;;;;;;4586648;57;21036;-35
2022/07/09 04:18:18;;;;;;;4.43;3.40;;;28.40;48.90;;;;;;4598662;57;21028;-32
2022/07/09 04:23:19;;;;;;;4.03;3.62;;;28.40;48.90;;;;;;4733149;57;21041;-31
2022/07/09 04:28:20;;;;;;;4.57;3.70;;;28.40;48.90;;;;;;4589767;57;21543;-30
2022/07/09 04:33:21;;;;;;;5.35;3.62;;;28.40;48.90;;;;;;4561255;61;21145;-31
2022/07/09 04:38:22;;;;;;;4.85;3.55;;;28.40;48.90;;;;;;4916241;57;21008;-30
2022/07/09 04:43:22;;;;;;;4.20;3.80;;;28.40;48.90;;;;;;4608764;57;21041;-30
2022/07/09 04:48:23;;;;;;;4.03;3.60;;;28.40;49.00;;;;;;4577575;57;21045;-30
2022/07/09 04:53:24;;;;;;;4.53;3.70;;;28.40;49.00;;;;;;4672187;57;21041;-30
2022/07/09 04:58:25;;;;;;;4.07;3.67;;;28.40;49.00;;;;;;4693377;57;21105;-31
2022/07/09 05:03:26;;;;;;;4.40;4.00;;;28.30;48.90;;;;;;4650501;57;21032;-30
2022/07/09 05:08:26;;;;;;;5.43;3.83;;;28.40;49.00;;;;;;4566990;57;21048;-33
2022/07/09 05:13:27;;;;;;;4.95;4.03;;;28.40;49.00;;;;;;4561462;61;21490;-31
2022/07/09 05:18:30;;;;;;;4.40;3.37;;;28.30;49.00;;;;;;4561969;61;21140;-27
2022/07/09 05:23:31;;;;;;;4.20;3.80;;;28.30;49.10;;;;;;4671297;57;21582;-28
2022/07/09 05:28:32;;;;;;;4.12;3.72;;;28.40;49.10;;;;;;4952731;57;21121;-30
2022/07/09 05:33:33;;;;;;;6.30;3.90;;;28.40;49.10;;;;;;4561948;61;21562;-31
2022/07/09 05:38:33;;;;;;;4.10;3.67;;;28.30;49.00;;;;;;4561718;61;21029;-31
2022/07/09 05:43:34;;;;;;;4.40;3.97;;;28.40;49.10;;;;;;4561841;61;21139;-31
2022/07/09 05:48:35;;;;;;;4.37;3.83;;;28.40;49.00;;;;;;4561384;61;21108;-30
2022/07/09 05:53:36;;;;;;;4.50;4.10;;;28.30;49.00;;;;;;4561600;61;21150;-30
2022/07/09 05:58:37;;;;;;;4.05;3.65;;;28.30;48.90;;;;;;4561634;61;21530;-30
2022/07/09 06:03:42;;;;;;;5.32;4.05;;;28.30;49.00;;;;;;4561736;61;21534;-29
2022/07/09 06:08:43;;;;;;;5.28;4.15;;;28.30;49.00;;;;;;4891043;57;21499;-33
2022/07/09 06:13:44;;;;;;;5.15;4.05;;;28.30;49.10;;;;;;4686054;57;21028;-28
2022/07/09 06:18:45;;;;;;;4.43;4.03;;;28.30;49.00;;;;;;4657551;57;21016;-30
2022/07/09 06:23:46;;;;;;;4.57;3.80;;;28.30;49.00;;;;;;4618729;57;21128;-26
2022/07/09 06:28:46;;;;;;;4.15;3.50;;;28.30;49.00;;;;;;4560693;61;21040;-30
2022/07/09 06:33:47;;;;;;;4.95;3.90;;;28.30;49.30;;;;;;4675937;57;21094;-30
2022/07/09 06:44:07;;;;;;;4.72;4.12;;;28.30;49.00;;;;;;4561206;57;21061;-32
2022/07/09 06:49:08;;;;;;;5.03;4.00;;;28.30;49.00;;;;;;4693190;57;21033;-31
2022/07/09 06:54:09;;;;;;;5.30;4.10;;;28.30;49.00;;;;;;4629020;57;21532;-33
2022/07/09 06:59:10;;;;;;;4.60;4.15;;;28.30;49.00;;;;;;4595105;57;21483;-35
2022/07/09 07:04:14;;;;;;;4.15;3.70;;;28.30;49.00;;;;;;4633461;57;21117;-31
2022/07/09 07:09:21;;;;;;;6.60;4.25;;;28.30;49.00;;;;;;4561882;61;21494;-27
2022/07/09 07:14:21;;;;;;;4.57;3.97;;;28.30;49.00;;;;;;4833863;57;21594;-30
2022/07/09 07:19:22;;;;;;;4.35;3.95;;;28.30;48.90;;;;;;4683752;57;21032;-30
2022/07/09 07:24:23;;;;;;;4.47;3.78;;;28.30;48.90;;;;;;4561222;61;21049;-30
2022/07/09 07:29:24;;;;;;;5.55;4.15;;;28.30;48.90;;;;;;4585743;57;21069;-32
2022/07/09 07:34:25;;;;;;;4.95;3.97;;;28.30;48.90;;;;;;4590549;57;21088;-30
2022/07/09 07:39:26;;;;;;;4.50;4.10;;;28.30;48.80;;;;;;4588735;57;21475;-30
2022/07/09 07:44:28;;;;;;;4.10;3.70;;;28.30;48.90;;;;;;4762655;57;21055;-30
2022/07/09 07:49:29;;;;;;;4.37;3.70;;;28.30;48.80;;;;;;4688238;57;21535;-30
2022/07/09 07:54:30;;;;;;;4.22;3.90;;;28.20;48.80;;;;;;4710732;57;21037;-35
2022/07/09 07:59:31;;;;;;;4.97;4.10;;;28.30;48.80;;;;;;4655588;57;21049;-28
2022/07/09 08:04:32;;;;;;;4.45;3.67;;;28.30;48.80;;;;;;4639593;57;21522;-31
2022/07/09 08:09:33;;;;;;;5.00;4.50;;;28.30;48.70;;;;;;4570038;57;21036;-30
2022/07/09 08:14:34;;;;;;;5.87;3.90;;;28.20;48.70;;;;;;4576766;57;21523;-30
2022/07/09 08:19:35;;;;;;;4.68;4.20;;;28.20;48.80;;;;;;4561469;58;21574;-29
2022/07/09 08:24:36;;;;;;;5.62;4.35;;;28.20;48.70;;;;;;4611153;57;21044;-30
2022/07/09 08:29:37;;;;;;;4.30;3.95;;;28.30;48.70;;;;;;4564376;57;21060;-31
2022/07/09 08:34:38;;;;;;;4.95;3.92;;;28.20;48.60;;;;;;4593503;57;21037;-31
2022/07/09 08:39:39;;;;;;;5.62;4.22;;;28.30;49.30;;;;;;4822730;57;21127;-31
2022/07/09 08:44:42;;;;;;;3.95;3.65;;;28.30;48.70;;;;;;4597808;57;21131;-30
2022/07/09 08:49:46;;;;;;;4.93;4.10;;;28.30;48.60;;;;;;4561849;61;21032;-28
2022/07/09 08:54:48;;;;;;;4.28;3.87;;;28.20;48.60;;;;;;4586381;57;21077;-30
2022/07/09 08:59:49;;;;;;;5.18;4.35;;;28.20;48.60;;;;;;4561628;61;21028;-30
2022/07/09 09:04:49;;;;;;;4.78;3.70;;;28.30;48.60;;;;;;4561256;61;21213;-34
2022/07/09 09:09:50;;;;;;;4.37;3.97;;;28.20;48.50;;;;;;4577437;57;21509;-32
2022/07/09 09:14:51;;;;;;;4.50;3.70;;;28.20;48.50;;;;;;4561391;61;22727;-30
2022/07/09 09:19:52;;;;;;;4.93;3.78;;;28.20;48.20;;;;;;4572010;57;21037;-30
2022/07/09 09:24:53;;;;;;;4.47;3.75;;;28.30;48.60;;;;;;4608278;57;21049;-30
2022/07/09 09:29:58;;;;;;;3.97;3.62;;;28.20;48.50;;;;;;4637053;57;21538;-30
2022/07/09 09:35:03;;;;;;;4.22;3.70;;;28.20;48.40;;;;;;5008274;57;21020;-30
2022/07/09 09:40:11;;;;;;;4.12;3.72;;;28.20;48.50;;;;;;4629549;57;21538;-35
2022/07/09 09:45:16;;;;;;;3.72;3.42;;;28.20;48.40;;;;;;4616067;57;21088;-30
2022/07/09 09:50:19;;;;;;;4.35;3.67;;;28.20;48.50;;;;;;4566831;57;21123;-32
2022/07/09 09:55:21;;;;;;;4.10;3.70;;;28.20;48.50;;;;;;4561578;61;21069;-27
2022/07/09 10:00:22;;;;;;;4.35;3.33;;;28.20;48.40;;;;;;4668860;57;21036;-30
2022/07/09 10:05:23;;;;;;;4.25;3.72;;;28.20;48.40;;;;;;4622443;57;21033;-31
2022/07/09 10:10:24;;;;;;;3.65;3.35;;;28.20;48.40;;;;;;4592057;57;21526;-30
2022/07/09 10:15:26;;;;;;;4.15;3.70;;;28.20;48.40;;;;;;4813843;57;21104;-31
2022/07/09 10:20:33;;;;;;;4.22;3.83;;;28.20;48.40;;;;;;4609631;57;21044;-29
2022/07/09 10:25:46;;;;;;;4.15;3.75;;;28.20;48.40;;;;;;4563093;57;21562;-32
2022/07/09 10:30:47;;;;;;;4.00;3.25;;;28.20;48.40;;;;;;4561301;61;21104;-31
2022/07/09 10:35:53;;;;;;;4.47;3.42;;;28.20;48.30;;;;;;4588576;57;21069;-32
2022/07/09 10:40:58;;;;;;;4.05;3.53;;;28.20;48.40;;;;;;4619446;57;21032;-30
2022/07/09 10:46:10;;;;;;;3.80;3.47;;;28.20;48.30;;;;;;4606010;57;21043;-30
2022/07/09 10:51:19;;;;;;;4.05;3.30;;;28.20;48.30;;;;;;4561632;58;21578;-32
2022/07/09 10:56:24;;;;;;;3.97;3.22;;;28.20;48.30;;;;;;4642431;57;21503;-31
2022/07/09 11:01:26;;;;;;;4.43;3.20;;;28.20;48.30;;;;;;4561655;58;21506;-30
2022/07/09 11:06:28;;;;;;;3.92;3.50;;;28.20;48.30;;;;;;4631690;57;21534;-31
2022/07/09 11:11:29;;;;;;;3.92;3.35;;;28.20;48.40;;;;;;4561504;59;21502;-28
2022/07/09 11:16:30;;;;;;;3.87;3.47;;;28.20;48.30;;;;;;4746103;57;21036;-31
2022/07/09 11:21:32;;;;;;;3.50;3.20;;;28.20;48.40;;;;;;4561422;61;21028;-30
2022/07/09 11:26:34;;;;;;;4.10;3.62;;;28.20;48.30;;;;;;4630059;57;21045;-32
2022/07/09 11:31:36;;;;;;;3.50;3.20;;;28.20;48.30;;;;;;4668108;57;21072;-30
2022/07/09 11:36:38;;;;;;;3.85;3.37;;;28.20;48.30;;;;;;4662117;57;21032;-30
2022/07/09 11:41:45;;;;;;;4.15;3.75;;;28.20;48.30;;;;;;4561626;61;21093;-31
2022/07/09 11:46:57;;;;;;;4.05;3.60;;;28.20;48.30;;;;;;4676929;57;21122;-29
2022/07/09 11:51:57;;;;;;;3.95;3.30;;;28.20;49.00;;;;;;4561339;61;21105;-32
2022/07/09 11:56:58;;;;;;;4.07;3.12;;;28.20;48.40;;;;;;4644488;57;21040;-30
2022/07/09 12:02:00;;;;;;;3.53;3.20;;;28.20;48.40;;;;;;4582998;57;21036;-31
2022/07/09 12:07:09;;;;;;;3.12;2.83;;;28.20;48.40;;;;;;4617785;57;21547;-32
2022/07/09 12:12:10;;;;;;;3.50;3.20;;;28.20;48.40;;;;;;4790899;57;21033;-34
2022/07/09 12:17:19;;;;;;;3.50;3.20;;;28.20;48.40;;;;;;4879124;57;21541;-30
2022/07/09 12:22:20;;;;;;;3.62;3.20;;;28.20;48.40;;;;;;4582552;57;21490;-30
2022/07/09 12:27:21;;;;;;;3.40;3.05;;;28.20;48.40;;;;;;4583247;57;21217;-30
2022/07/09 12:32:22;;;;;;;3.60;3.28;;;28.20;48.30;;;;;;4728480;57;21136;-29
2022/07/09 12:37:23;;;;;;;3.65;3.25;;;28.20;48.40;;;;;;4738892;57;21565;-30
2022/07/09 12:42:23;;;;;;;3.28;2.97;;;28.20;49.00;;;;;;4561252;61;21085;-28
2022/07/09 12:47:24;;;;;;;3.95;2.83;;;28.20;48.40;;;;;;4652099;57;21036;-31
2022/07/09 12:52:26;;;;;;;3.55;3.08;;;28.20;48.30;;;;;;4679166;57;21024;-29
2022/07/09 12:57:27;;;;;;;3.12;2.62;;;28.20;48.30;;;;;;4646907;57;21485;-28
2022/07/09 13:02:28;;;;;;;3.10;2.80;;;28.20;48.30;;;;;;4683642;57;21140;-29
2022/07/09 13:07:29;;;;;;;3.22;2.92;;;28.20;48.30;;;;;;4791918;57;21118;-31
2022/07/09 13:12:30;;;;;;;3.47;2.78;;;28.20;48.30;;;;;;4627674;57;21486;-28
2022/07/09 13:17:31;;;;;;;5.00;3.33;;;28.20;48.30;;;;;;4561310;59;21578;-31
2022/07/09 13:22:32;;;;;;;3.20;2.90;;;28.20;48.30;;;;;;4698237;57;21017;-33
2022/07/09 13:27:33;;;;;;;3.60;3.10;;;28.20;48.20;;;;;;4628231;57;21084;-31
2022/07/09 13:32:34;;;;;;;4.10;3.10;;;28.20;48.40;;;;;;4726414;57;21487;-32
2022/07/09 13:37:34;;;;;;;2.97;2.72;;;28.20;48.50;;;;;;4561500;61;21053;-31
2022/07/09 13:42:35;;;;;;;3.30;3.00;;;28.20;48.40;;;;;;4604539;57;21036;-30
2022/07/09 13:47:36;;;;;;;3.37;3.08;;;28.20;48.40;;;;;;4560754;61;21049;-31
2022/07/09 13:52:37;;;;;;;2.97;2.78;;;28.20;48.40;;;;;;4561589;61;21040;-33
2022/07/09 13:57:37;;;;;;;3.45;3.10;;;28.20;48.40;;;;;;4561321;61;21590;-34
2022/07/09 14:02:38;;;;;;;3.10;2.90;;;28.20;48.30;;;;;;4561455;61;21036;-32
2022/07/09 14:07:39;;;;;;;2.90;2.60;;;28.20;48.40;;;;;;4575481;57;21057;-31
2022/07/09 14:12:40;;;;;;;3.20;2.90;;;28.20;48.30;;;;;;4647310;57;21156;-31
2022/07/09 14:17:41;;;;;;;3.50;3.00;;;28.20;48.40;;;;;;4581906;57;21145;-30
2022/07/09 14:22:42;;;;;;;3.10;2.80;;;28.20;48.40;;;;;;4607770;57;21490;-29
2022/07/09 14:27:43;;;;;;;3.78;3.20;;;28.20;48.50;;;;;;4636926;57;21061;-31
2022/07/09 14:32:44;;;;;;;3.25;2.95;;;28.20;48.40;;;;;;4666419;57;21048;-32
2022/07/09 14:37:44;;;;;;;3.03;2.83;;;28.20;48.40;;;;;;4620708;57;21118;-29
2022/07/09 14:42:45;;;;;;;2.92;2.60;;;28.20;48.50;;;;;;4832838;57;21090;-30
2022/07/09 14:47:46;;;;;;;3.22;2.92;;;28.20;48.40;;;;;;4585735;57;21037;-34
2022/07/09 14:52:47;;;;;;;4.32;3.28;;;28.20;48.40;;;;;;4787972;57;21574;-29
2022/07/09 14:57:48;;;;;;;3.12;2.83;;;28.20;48.50;;;;;;4589234;57;21582;-32
2022/07/09 15:02:48;;;;;;;2.90;2.70;;;28.20;48.40;;;;;;4561476;61;21144;-31
2022/07/09 15:07:49;;;;;;;4.22;2.70;;;28.20;48.40;;;;;;4656499;57;21075;-31
2022/07/09 15:12:50;;;;;;;3.67;2.58;;;28.20;48.40;;;;;;4573719;57;21622;-28
2022/07/09 15:17:51;;;;;;;3.00;2.70;;;28.20;49.00;;;;;;4561720;57;21093;-30
2022/07/09 15:22:52;;;;;;;3.08;2.80;;;28.20;48.40;;;;;;4561524;61;21547;-30
2022/07/09 15:27:55;;;;;;;3.10;2.80;;;28.20;48.70;;;;;;4681842;57;21061;-31
2022/07/09 15:32:56;;;;;;;3.00;2.70;;;28.20;48.40;;;;;;4640173;57;21033;-32
2022/07/09 15:37:56;;;;;;;3.45;2.90;;;28.10;48.30;;;;;;4600710;57;21028;-31
2022/07/09 15:42:57;;;;;;;3.28;2.72;;;28.20;48.30;;;;;;4715783;57;21037;-31
2022/07/09 15:47:58;;;;;;;3.42;2.97;;;28.20;48.40;;;;;;4560656;57;21100;-30
2022/07/09 15:52:59;;;;;;;3.30;3.00;;;28.10;48.30;;;;;;4669618;57;21028;-31
2022/07/09 15:58:00;;;;;;;4.00;2.85;;;28.20;48.30;;;;;;4561898;57;21448;-32
2022/07/09 16:03:01;;;;;;;2.80;2.60;;;28.20;48.20;;;;;;4814428;57;21112;-31
2022/07/09 16:08:03;;;;;;;2.62;2.42;;;28.20;48.50;;;;;;4560572;61;21510;-31
2022/07/09 16:13:05;;;;;;;3.10;2.80;;;28.20;48.40;;;;;;4636485;57;21028;-31
2022/07/09 16:18:06;;;;;;;3.10;2.72;;;28.20;48.40;;;;;;4734542;57;21072;-29
2022/07/09 16:23:07;;;;;;;3.47;2.80;;;28.20;48.30;;;;;;4676149;57;21501;-32
2022/07/09 16:28:08;;;;;;;2.85;2.65;;;28.10;48.30;;;;;;4560699;57;21101;-36
2022/07/09 16:33:09;;;;;;;3.12;2.70;;;28.20;48.30;;;;;;4597702;57;21052;-31
2022/07/09 16:38:09;;;;;;;2.30;2.12;;;28.20;48.30;;;;;;4657205;57;21566;-30
2022/07/09 16:43:10;;;;;;;3.20;2.90;;;28.20;48.40;;;;;;4800579;57;21141;-30
2022/07/09 16:48:11;;;;;;;3.00;2.80;;;28.20;48.30;;;;;;4788411;57;21044;-31
2022/07/09 16:53:12;;;;;;;3.30;2.62;;;28.20;48.30;;;;;;4639477;57;21044;-30
2022/07/09 16:58:13;;;;;;;3.10;2.80;;;28.20;48.30;;;;;;4667454;57;21507;-31
2022/07/09 17:03:15;;;;;;;3.10;2.80;;;28.10;48.20;;;;;;4726066;57;21566;-32
2022/07/09 17:08:16;;;;;;;2.83;2.55;;;28.20;48.30;;;;;;4560552;61;21594;-33
2022/07/09 17:13:17;;;;;;;3.35;2.80;;;28.20;48.20;;;;;;4601053;57;21060;-30
2022/07/09 17:18:18;;;;;;;2.95;2.75;;;28.10;48.20;;;;;;4675057;57;21033;-30
2022/07/09 17:23:19;;;;;;;3.12;2.42;;;28.20;48.20;;;;;;4561654;57;21107;-30
2022/07/09 17:28:21;;;;;;;2.75;2.55;;;28.20;48.30;;;;;;4560582;61;21128;-30
2022/07/09 17:33:22;;;;;;;2.83;2.60;;;28.20;48.20;;;;;;4623172;57;21088;-32
2022/07/09 17:38:23;;;;;;;3.03;2.80;;;28.20;48.20;;;;;;4561612;58;21084;-29
2022/07/09 17:43:24;;;;;;;2.60;2.40;;;28.10;48.10;;;;;;4636450;57;21637;-31
2022/07/09 17:48:25;;;;;;;3.03;2.33;;;28.20;48.10;;;;;;4561270;61;21547;-30
2022/07/09 17:53:26;;;;;;;2.83;2.62;;;28.10;48.20;;;;;;4637453;57;21590;-30
2022/07/09 17:58:27;;;;;;;2.78;2.50;;;28.20;48.20;;;;;;4561465;58;21114;-30
2022/07/09 18:03:28;;;;;;;2.92;2.62;;;28.10;48.20;;;;;;4561520;58;21034;-34
2022/07/09 18:08:28;;;;;;;2.97;2.78;;;28.10;48.20;;;;;;4807855;57;21021;-29
2022/07/09 18:13:29;;;;;;;2.70;2.50;;;28.10;48.00;;;;;;4746852;57;21586;-29
2022/07/09 18:18:30;;;;;;;2.95;2.47;;;28.20;48.00;;;;;;4561131;61;21025;-29
2022/07/09 18:23:31;;;;;;;4.78;2.33;;;28.10;48.00;;;;;;4561245;58;21044;-29
2022/07/09 18:28:32;;;;;;;2.83;2.58;;;28.10;47.90;;;;;;4638223;57;21194;-30
2022/07/09 18:33:33;;;;;;;2.60;2.40;;;28.20;48.00;;;;;;4615361;57;21065;-30
2022/07/09 18:38:33;;;;;;;2.60;2.40;;;28.20;48.00;;;;;;4840819;57;21463;-28
2022/07/09 18:43:34;;;;;;;2.65;2.42;;;28.20;48.00;;;;;;4569485;57;21622;-28
2022/07/09 18:48:35;;;;;;;3.00;2.42;;;28.10;47.90;;;;;;4561484;61;21088;-32
2022/07/09 18:53:36;;;;;;;2.80;2.60;;;28.10;48.70;;;;;;4588463;57;21056;-33
2022/07/09 18:58:37;;;;;;;2.97;2.42;;;28.10;48.10;;;;;;4661321;57;21085;-28
2022/07/09 19:03:37;;;;;;;2.75;2.55;;;28.20;48.10;;;;;;4640146;57;21479;-29
2022/07/09 19:08:38;;;;;;;2.65;2.45;;;28.20;48.00;;;;;;4561320;61;21025;-30
2022/07/09 19:13:39;;;;;;;2.83;2.30;;;28.10;47.90;;;;;;4777369;57;21052;-32
2022/07/09 19:18:40;;;;;;;2.72;2.50;;;28.10;48.00;;;;;;4775598;57;21021;-29
2022/07/09 19:23:41;;;;;;;3.55;2.50;;;28.20;47.90;;;;;;4688302;57;21049;-30
2022/07/09 19:28:42;;;;;;;2.65;2.45;;;28.10;47.90;;;;;;4560983;61;21148;-32
2022/07/09 19:39:04;;;;;;;2.95;2.75;;;28.10;47.90;;;;;;4561263;57;21048;-34
2022/07/09 19:44:07;;;;;;;2.95;2.40;;;28.10;47.90;;;;;;4649405;57;21607;-31
2022/07/09 19:49:07;;;;;;;3.22;2.72;;;28.10;47.90;;;;;;4759697;57;21543;-31
2022/07/09 19:54:08;;;;;;;3.20;2.90;;;28.10;48.00;;;;;;4561605;61;21076;-31
2022/07/09 19:59:09;;;;;;;3.20;2.90;;;28.10;48.00;;;;;;4780271;57;21036;-32
2022/07/09 20:04:10;;;;;;;3.00;2.70;;;28.10;48.00;;;;;;4615468;57;21142;-33
2022/07/09 20:09:11;;;;;;;2.55;2.35;;;28.10;48.00;;;;;;5008077;57;21096;-33
2022/07/09 20:14:12;;;;;;;3.08;2.78;;;28.10;48.00;;;;;;4609496;57;21049;-35
2022/07/09 20:19:13;;;;;;;2.95;2.75;;;28.10;48.10;;;;;;4622957;57;21021;-34
2022/07/09 20:24:15;;;;;;;3.40;2.87;;;28.10;48.00;;;;;;4591861;57;21049;-32
2022/07/09 20:29:16;;;;;;;2.70;2.50;;;28.10;48.10;;;;;;4560633;61;21670;-33
2022/07/09 20:34:17;;;;;;;2.90;2.60;;;28.10;48.00;;;;;;4750549;57;21139;-36
2022/07/09 20:39:18;;;;;;;3.25;2.95;;;28.10;48.20;;;;;;4585861;57;21040;-31
2022/07/09 20:44:19;;;;;;;3.05;2.75;;;28.10;48.10;;;;;;4561344;61;21105;-30
2022/07/09 20:49:20;;;;;;;3.58;3.00;;;28.10;48.20;;;;;;4562114;61;21085;-31
2022/07/09 20:54:20;;;;;;;3.17;2.87;;;28.10;48.30;;;;;;4561805;61;21141;-30
2022/07/09 20:59:21;;;;;;;3.47;3.08;;;28.10;48.30;;;;;;4774458;57;21076;-29
2022/07/09 21:04:22;;;;;;;3.50;3.20;;;28.10;48.30;;;;;;4561698;57;21593;-30
2022/07/09 21:09:23;;;;;;;3.45;3.15;;;28.00;48.80;;;;;;4682806;57;21107;-33
2022/07/09 21:14:26;;;;;;;3.42;3.12;;;28.10;48.20;;;;;;4681187;57;21049;-32
2022/07/09 21:19:27;;;;;;;4.35;3.58;;;28.00;48.30;;;;;;4561637;61;21088;-31
2022/07/09 21:24:28;;;;;;;3.83;3.33;;;28.00;48.20;;;;;;4719227;57;21048;-28
2022/07/09 21:29:29;;;;;;;4.43;3.78;;;28.00;48.30;;;;;;4607866;57;21089;-31
2022/07/09 21:34:30;;;;;;;3.70;3.40;;;28.00;48.30;;;;;;4561311;61;21028;-30
2022/07/09 21:39:30;;;;;;;3.78;3.35;;;28.00;48.40;;;;;;4670785;57;21028;-30
2022/07/09 21:44:31;;;;;;;4.32;3.65;;;28.00;48.30;;;;;;4652656;57;21041;-31
2022/07/09 21:49:32;;;;;;;3.28;2.97;;;28.00;48.30;;;;;;4717799;57;21058;-31
2022/07/09 21:54:34;;;;;;;4.07;3.37;;;28.00;48.40;;;;;;4561654;61;21028;-33
2022/07/09 21:59:35;;;;;;;3.70;3.40;;;28.00;48.40;;;;;;4561664;61;21017;-33
2022/07/09 22:04:35;;;;;;;3.40;3.10;;;28.00;48.40;;;;;;4627346;57;21120;-33
2022/07/09 22:09:36;;;;;;;4.25;3.40;;;28.00;48.30;;;;;;4561642;61;21096;-30
2022/07/09 22:14:37;;;;;;;4.25;3.80;;;28.00;48.40;;;;;;4616280;57;21021;-31
2022/07/09 22:19:38;;;;;;;3.60;3.30;;;28.00;48.30;;;;;;4561654;61;21491;-28
2022/07/09 22:24:39;;;;;;;5.10;3.20;;;28.00;48.40;;;;;;4561114;61;21016;-29
2022/07/09 22:29:40;;;;;;;5.43;3.37;;;28.00;48.40;;;;;;4716827;57;21125;-31
2022/07/09 22:34:40;;;;;;;4.47;3.35;;;28.00;48.50;;;;;;4561616;61;21092;-30
2022/07/09 22:39:41;;;;;;;3.83;3.12;;;28.00;48.40;;;;;;4684596;57;21028;-32
2022/07/09 22:44:42;;;;;;;3.47;3.08;;;28.00;48.40;;;;;;4802180;57;21048;-31
2022/07/09 22:49:43;;;;;;;3.67;3.20;;;28.00;48.60;;;;;;4644462;57;21005;-33
2022/07/09 22:54:45;;;;;;;3.85;3.20;;;27.90;48.40;;;;;;4576479;57;21092;-31
2022/07/09 22:59:46;;;;;;;3.65;3.10;;;27.90;48.30;;;;;;4561609;61;21080;-26
2022/07/09 23:04:46;;;;;;;3.30;3.00;;;27.90;48.40;;;;;;4756308;57;21583;-31
2022/07/09 23:09:47;;;;;;;3.97;3.10;;;27.90;48.30;;;;;;4660813;57;21029;-31
2022/07/09 23:14:48;;;;;;;3.75;3.20;;;27.90;48.30;;;;;;4585267;57;21028;-36
2022/07/09 23:19:49;;;;;;;3.50;3.17;;;27.90;48.30;;;;;;4613974;57;21575;-32
2022/07/09 23:24:52;;;;;;;4.07;3.30;;;27.90;48.20;;;;;;4656949;57;21557;-31
2022/07/09 23:29:54;;;;;;;3.40;2.97;;;27.90;48.30;;;;;;4775297;57;21563;-31
2022/07/09 23:34:55;;;;;;;3.67;3.05;;;27.90;48.30;;;;;;4918086;57;21120;-31
2022/07/09 23:39:55;;;;;;;3.37;3.08;;;27.90;48.20;;;;;;4733668;57;21060;-34
2022/07/09 23:44:56;;;;;;;3.78;2.92;;;27.90;49.00;;;;;;4608700;57;21099;-29
2022/07/09 23:49:57;;;;;;;3.25;2.95;;;27.90;48.30;;;;;;4728375;57;21076;-31
2022/07/09 23:54:58;;;;;;;3.28;2.97;;;27.90;48.30;;;;;;4847615;57;21108;-30
2022/07/09 23:59:59;;;;;;;3.15;2.70;;;27.90;47.80;;;;;;4837730;57;21601;-32
